sensor_id;sensor_type;location;lat;lon;timestamp;pressure;altitude;pressure_sealevel;temperature;humidity
55289;BME280;41154;45.394;5.734;2022-11-30T00:00:38;97004.19;;;5.68;100.00
55289;BME280;41154;45.394;5.734;2022-11-30T00:03:04;96996.84;;;5.64;100.00
55289;BME280;41154;45.394;5.734;2022-11-30T00:05:30;96997.72;;;5.57;100.00
55289;BME280;41154;45.394;5.734;2022-11-30T00:07:55;96996.06;;;5.63;100.00
55289;BME280;41154;45.394;5.734;2022-11-30T00:10:22;96991.97;;;5.61;100.00
55289;BME280;41154;45.394;5.734;2022-11-30T00:12:48;96990.94;;;5.62;100.00
55289;BME280;41154;45.394;5.734;2022-11-30T00:15:14;96988.63;;;5.72;100.00
55289;BME280;41154;45.394;5.734;2022-11-30T00:17:45;96986.63;;;5.86;100.00
55289;BME280;41154;45.394;5.734;2022-11-30T00:20:12;96986.19;;;5.89;100.00
55289;BME280;41154;45.394;5.734;2022-11-30T00:22:39;96984.78;;;5.86;100.00
55289;BME280;41154;45.394;5.734;2022-11-30T00:25:05;96986.09;;;5.77;100.00
55289;BME280;41154;45.394;5.734;2022-11-30T00:27:32;96982.47;;;5.71;100.00
55289;BME280;41154;45.394;5.734;2022-11-30T00:29:58;96982.25;;;5.73;100.00
55289;BME280;41154;45.394;5.734;2022-11-30T00:32:25;96980.47;;;5.67;100.00
55289;BME280;41154;45.394;5.734;2022-11-30T00:34:51;96981.28;;;5.86;100.00
55289;BME280;41154;45.394;5.734;2022-11-30T00:37:17;96980.13;;;5.82;100.00
55289;BME280;41154;45.394;5.734;2022-11-30T00:39:43;96976.69;;;5.74;100.00
55289;BME280;41154;45.394;5.734;2022-11-30T00:42:09;96983.94;;;5.67;100.00
55289;BME280;41154;45.394;5.734;2022-11-30T00:44:34;96980.69;;;5.65;100.00
55289;BME280;41154;45.394;5.734;2022-11-30T00:47:00;96980.03;;;5.70;100.00
55289;BME280;41154;45.394;5.734;2022-11-30T00:49:26;96978.44;;;5.62;100.00
55289;BME280;41154;45.394;5.734;2022-11-30T00:51:52;96973.63;;;5.52;100.00
55289;BME280;41154;45.394;5.734;2022-11-30T00:54:18;96976.66;;;5.56;100.00
55289;BME280;41154;45.394;5.734;2022-11-30T00:56:43;96975.63;;;5.57;100.00
55289;BME280;41154;45.394;5.734;2022-11-30T00:59:09;96975.63;;;5.57;100.00
55289;BME280;41154;45.394;5.734;2022-11-30T01:01:35;96978.88;;;5.59;100.00
55289;BME280;41154;45.394;5.734;2022-11-30T01:04:01;96980.38;;;5.55;100.00
55289;BME280;41154;45.394;5.734;2022-11-30T01:06:27;96973.53;;;5.66;100.00
55289;BME280;41154;45.394;5.734;2022-11-30T01:08:53;96980.31;;;5.62;100.00
55289;BME280;41154;45.394;5.734;2022-11-30T01:11:24;96982.38;;;5.60;100.00
55289;BME280;41154;45.394;5.734;2022-11-30T01:13:51;96976.06;;;5.54;100.00
55289;BME280;41154;45.394;5.734;2022-11-30T01:16:20;96984.59;;;5.63;100.00
55289;BME280;41154;45.394;5.734;2022-11-30T01:18:47;96986.72;;;5.54;100.00
55289;BME280;41154;45.394;5.734;2022-11-30T01:21:15;96983.03;;;5.55;100.00
55289;BME280;41154;45.394;5.734;2022-11-30T01:23:41;96973.31;;;5.67;100.00
55289;BME280;41154;45.394;5.734;2022-11-30T01:26:08;96980.53;;;5.60;100.00
55289;BME280;41154;45.394;5.734;2022-11-30T01:28:34;96983.28;;;5.72;100.00
55289;BME280;41154;45.394;5.734;2022-11-30T01:31:03;96979.38;;;5.74;100.00
55289;BME280;41154;45.394;5.734;2022-11-30T01:33:29;96985.97;;;5.90;100.00
55289;BME280;41154;45.394;5.734;2022-11-30T01:36:13;96980.84;;;5.70;100.00
55289;BME280;41154;45.394;5.734;2022-11-30T01:38:44;96981.75;;;5.57;100.00
55289;BME280;41154;45.394;5.734;2022-11-30T01:41:13;96984.00;;;5.61;100.00
55289;BME280;41154;45.394;5.734;2022-11-30T01:43:50;96992.47;;;5.51;100.00
55289;BME280;41154;45.394;5.734;2022-11-30T01:46:35;96980.63;;;5.47;100.00
55289;BME280;41154;45.394;5.734;2022-11-30T01:54:08;96987.53;;;5.54;100.00
55289;BME280;41154;45.394;5.734;2022-11-30T01:56:40;96985.03;;;5.60;100.00
55289;BME280;41154;45.394;5.734;2022-11-30T01:59:08;96976.00;;;5.61;100.00
55289;BME280;41154;45.394;5.734;2022-11-30T02:01:34;96973.47;;;5.72;100.00
55289;BME280;41154;45.394;5.734;2022-11-30T02:04:12;96974.66;;;5.76;100.00
55289;BME280;41154;45.394;5.734;2022-11-30T02:06:40;96973.09;;;5.69;100.00
55289;BME280;41154;45.394;5.734;2022-11-30T02:09:06;96973.19;;;5.55;100.00
55289;BME280;41154;45.394;5.734;2022-11-30T02:11:33;96969.88;;;5.60;100.00
55289;BME280;41154;45.394;5.734;2022-11-30T02:27:39;96970.59;;;5.49;100.00
55289;BME280;41154;45.394;5.734;2022-11-30T02:30:11;96973.69;;;5.46;100.00
55289;BME280;41154;45.394;5.734;2022-11-30T02:32:53;96975.31;;;5.47;100.00
55289;BME280;41154;45.394;5.734;2022-11-30T02:35:27;96977.38;;;5.45;100.00
55289;BME280;41154;45.394;5.734;2022-11-30T02:37:56;96977.53;;;5.50;100.00
55289;BME280;41154;45.394;5.734;2022-11-30T02:40:23;96980.41;;;5.48;100.00
55289;BME280;41154;45.394;5.734;2022-11-30T02:42:51;96978.41;;;5.44;100.00
55289;BME280;41154;45.394;5.734;2022-11-30T02:45:23;96972.75;;;5.58;100.00
55289;BME280;41154;45.394;5.734;2022-11-30T02:48:03;96977.72;;;5.55;100.00
55289;BME280;41154;45.394;5.734;2022-11-30T02:50:40;96976.94;;;5.48;100.00
55289;BME280;41154;45.394;5.734;2022-11-30T02:53:08;96980.84;;;5.45;100.00
55289;BME280;41154;45.394;5.734;2022-11-30T02:55:34;96974.56;;;5.39;100.00
55289;BME280;41154;45.394;5.734;2022-11-30T02:57:59;96978.84;;;5.40;100.00
55289;BME280;41154;45.394;5.734;2022-11-30T03:00:25;96976.34;;;5.46;100.00
55289;BME280;41154;45.394;5.734;2022-11-30T03:02:51;96973.25;;;5.49;100.00
55289;BME280;41154;45.394;5.734;2022-11-30T03:05:17;96977.78;;;5.67;100.00
55289;BME280;41154;45.394;5.734;2022-11-30T03:07:42;96978.00;;;5.65;100.00
55289;BME280;41154;45.394;5.734;2022-11-30T03:10:09;96973.78;;;5.57;100.00
55289;BME280;41154;45.394;5.734;2022-11-30T03:12:35;96978.53;;;5.55;100.00
55289;BME280;41154;45.394;5.734;2022-11-30T03:15:00;96971.19;;;5.51;100.00
55289;BME280;41154;45.394;5.734;2022-11-30T03:17:26;96970.38;;;5.50;100.00
55289;BME280;41154;45.394;5.734;2022-11-30T03:19:52;96970.00;;;5.47;100.00
55289;BME280;41154;45.394;5.734;2022-11-30T03:22:18;96971.28;;;5.37;100.00
55289;BME280;41154;45.394;5.734;2022-11-30T03:24:44;96979.28;;;5.37;100.00
55289;BME280;41154;45.394;5.734;2022-11-30T03:27:09;96968.41;;;5.39;100.00
55289;BME280;41154;45.394;5.734;2022-11-30T03:29:35;96975.00;;;5.36;100.00
55289;BME280;41154;45.394;5.734;2022-11-30T03:32:01;96979.31;;;5.56;100.00
55289;BME280;41154;45.394;5.734;2022-11-30T03:34:26;96970.66;;;5.67;100.00
55289;BME280;41154;45.394;5.734;2022-11-30T03:36:53;96963.22;;;5.51;100.00
55289;BME280;41154;45.394;5.734;2022-11-30T03:39:19;96975.31;;;5.47;100.00
55289;BME280;41154;45.394;5.734;2022-11-30T03:41:45;96968.19;;;5.40;100.00
55289;BME280;41154;45.394;5.734;2022-11-30T03:44:11;96968.41;;;5.39;100.00
55289;BME280;41154;45.394;5.734;2022-11-30T03:46:36;96970.13;;;5.33;100.00
55289;BME280;41154;45.394;5.734;2022-11-30T03:49:02;96974.16;;;5.36;100.00
55289;BME280;41154;45.394;5.734;2022-11-30T03:51:28;96976.66;;;5.31;100.00
55289;BME280;41154;45.394;5.734;2022-11-30T03:53:53;96976.66;;;5.31;100.00
55289;BME280;41154;45.394;5.734;2022-11-30T03:56:19;96974.72;;;5.45;100.00
55289;BME280;41154;45.394;5.734;2022-11-30T03:58:45;96971.66;;;5.66;100.00
55289;BME280;41154;45.394;5.734;2022-11-30T04:01:14;96975.56;;;5.64;100.00
55289;BME280;41154;45.394;5.734;2022-11-30T04:03:40;96979.28;;;5.63;100.00
55289;BME280;41154;45.394;5.734;2022-11-30T04:06:07;96974.22;;;5.54;100.00
55289;BME280;41154;45.394;5.734;2022-11-30T04:08:34;96974.97;;;5.62;100.00
55289;BME280;41154;45.394;5.734;2022-11-30T04:11:01;96962.38;;;5.75;100.00
55289;BME280;41154;45.394;5.734;2022-11-30T04:13:28;96968.13;;;5.72;100.00
55289;BME280;41154;45.394;5.734;2022-11-30T04:15:54;96970.13;;;5.77;100.00
55289;BME280;41154;45.394;5.734;2022-11-30T04:18:22;96967.22;;;5.60;100.00
55289;BME280;41154;45.394;5.734;2022-11-30T04:20:52;96975.28;;;5.53;100.00
55289;BME280;41154;45.394;5.734;2022-11-30T04:23:19;96963.44;;;5.49;100.00
55289;BME280;41154;45.394;5.734;2022-11-30T04:25:45;96972.50;;;5.42;100.00
55289;BME280;41154;45.394;5.734;2022-11-30T04:28:13;96967.59;;;5.38;100.00
55289;BME280;41154;45.394;5.734;2022-11-30T04:30:39;96970.13;;;5.33;100.00
55289;BME280;41154;45.394;5.734;2022-11-30T04:33:04;96975.03;;;5.30;100.00
55289;BME280;41154;45.394;5.734;2022-11-30T04:35:30;96963.81;;;5.28;100.00
55289;BME280;41154;45.394;5.734;2022-11-30T04:37:57;96976.72;;;5.24;100.00
55289;BME280;41154;45.394;5.734;2022-11-30T04:40:23;96969.41;;;5.19;100.00
55289;BME280;41154;45.394;5.734;2022-11-30T04:42:49;96977.16;;;5.21;100.00
55289;BME280;41154;45.394;5.734;2022-11-30T04:45:14;96972.88;;;5.20;100.00
55289;BME280;41154;45.394;5.734;2022-11-30T04:47:40;96972.06;;;5.19;100.00
55289;BME280;41154;45.394;5.734;2022-11-30T04:50:07;96967.81;;;5.37;100.00
55289;BME280;41154;45.394;5.734;2022-11-30T04:52:33;96981.19;;;5.30;100.00
55289;BME280;41154;45.394;5.734;2022-11-30T04:54:59;96973.00;;;5.32;100.00
55289;BME280;41154;45.394;5.734;2022-11-30T04:57:25;96969.03;;;5.41;100.00
55289;BME280;41154;45.394;5.734;2022-11-30T04:59:51;96974.56;;;5.39;100.00
55289;BME280;41154;45.394;5.734;2022-11-30T05:02:17;96974.50;;;5.46;100.00
55289;BME280;41154;45.394;5.734;2022-11-30T05:04:43;96976.84;;;5.61;100.00
55289;BME280;41154;45.394;5.734;2022-11-30T05:07:09;96980.81;;;5.52;100.00
55289;BME280;41154;45.394;5.734;2022-11-30T05:09:35;96975.00;;;5.36;100.00
55289;BME280;41154;45.394;5.734;2022-11-30T05:12:01;96982.38;;;5.34;100.00
55289;BME280;41154;45.394;5.734;2022-11-30T05:14:26;96979.66;;;5.41;100.00
55289;BME280;41154;45.394;5.734;2022-11-30T05:16:52;96972.56;;;5.35;100.00
55289;BME280;41154;45.394;5.734;2022-11-30T05:19:18;96988.88;;;5.38;100.00
55289;BME280;41154;45.394;5.734;2022-11-30T05:21:44;96980.34;;;5.30;100.00
55289;BME280;41154;45.394;5.734;2022-11-30T05:24:10;96985.38;;;5.45;100.00
55289;BME280;41154;45.394;5.734;2022-11-30T05:26:36;96984.34;;;5.46;100.00
55289;BME280;41154;45.394;5.734;2022-11-30T05:29:04;96983.13;;;5.42;100.00
55289;BME280;41154;45.394;5.734;2022-11-30T05:31:30;96992.69;;;5.49;100.00
55289;BME280;41154;45.394;5.734;2022-11-30T05:33:56;96984.38;;;5.39;100.00
55289;BME280;41154;45.394;5.734;2022-11-30T05:36:22;96986.94;;;5.52;100.00
55289;BME280;41154;45.394;5.734;2022-11-30T05:38:48;96989.31;;;5.35;100.00
55289;BME280;41154;45.394;5.734;2022-11-30T05:41:13;96992.19;;;5.34;100.00
55289;BME280;41154;45.394;5.734;2022-11-30T05:43:40;96997.50;;;5.34;100.00
55289;BME280;41154;45.394;5.734;2022-11-30T05:46:07;96987.00;;;5.46;100.00
55289;BME280;41154;45.394;5.734;2022-11-30T05:48:34;96991.06;;;5.48;100.00
55289;BME280;41154;45.394;5.734;2022-11-30T05:51:12;96988.59;;;5.47;100.00
55289;BME280;41154;45.394;5.734;2022-11-30T05:53:40;96994.97;;;5.46;100.00
55289;BME280;41154;45.394;5.734;2022-11-30T05:56:16;96989.16;;;5.55;100.00
55289;BME280;41154;45.394;5.734;2022-11-30T05:58:42;96988.47;;;5.42;100.00
55289;BME280;41154;45.394;5.734;2022-11-30T06:01:23;96993.63;;;5.36;100.00
55289;BME280;41154;45.394;5.734;2022-11-30T06:03:49;96988.81;;;5.45;100.00
55289;BME280;41154;45.394;5.734;2022-11-30T06:06:16;96989.03;;;5.44;100.00
55289;BME280;41154;45.394;5.734;2022-11-30T06:08:43;96995.84;;;5.39;100.00
55289;BME280;41154;45.394;5.734;2022-11-30T06:11:09;97000.94;;;5.41;100.00
55289;BME280;41154;45.394;5.734;2022-11-30T06:13:35;96993.56;;;5.43;100.00
55289;BME280;41154;45.394;5.734;2022-11-30T06:16:02;96991.06;;;5.48;100.00
55289;BME280;41154;45.394;5.734;2022-11-30T06:18:28;96995.13;;;5.51;100.00
55289;BME280;41154;45.394;5.734;2022-11-30T06:20:59;97002.34;;;5.44;100.00
55289;BME280;41154;45.394;5.734;2022-11-30T06:23:24;96997.31;;;5.35;100.00
55289;BME280;41154;45.394;5.734;2022-11-30T06:25:50;96999.53;;;5.38;100.00
55289;BME280;41154;45.394;5.734;2022-11-30T06:28:16;97000.81;;;5.29;100.00
55289;BME280;41154;45.394;5.734;2022-11-30T06:30:41;96989.16;;;5.30;100.00
55289;BME280;41154;45.394;5.734;2022-11-30T06:33:07;96998.09;;;5.36;100.00
55289;BME280;41154;45.394;5.734;2022-11-30T06:35:33;96996.06;;;5.38;100.00
55289;BME280;41154;45.394;5.734;2022-11-30T06:37:58;96988.25;;;5.43;100.00
55289;BME280;41154;45.394;5.734;2022-11-30T06:40:27;96990.47;;;5.46;100.00
55289;BME280;41154;45.394;5.734;2022-11-30T06:42:53;96994.78;;;5.40;100.00
55289;BME280;41154;45.394;5.734;2022-11-30T06:45:19;96992.41;;;5.32;100.00
55289;BME280;41154;45.394;5.734;2022-11-30T06:47:45;96998.31;;;5.34;100.00
55289;BME280;41154;45.394;5.734;2022-11-30T06:50:12;96993.88;;;5.28;100.00
55289;BME280;41154;45.394;5.734;2022-11-30T06:52:38;96994.91;;;5.27;100.00
55289;BME280;41154;45.394;5.734;2022-11-30T06:55:04;96992.25;;;5.27;100.00
55289;BME280;41154;45.394;5.734;2022-11-30T06:57:30;96990.19;;;5.29;100.00
55289;BME280;41154;45.394;5.734;2022-11-30T06:59:56;96985.41;;;5.63;100.00
55289;BME280;41154;45.394;5.734;2022-11-30T07:02:22;96987.75;;;5.78;100.00
55289;BME280;41154;45.394;5.734;2022-11-30T07:04:48;96994.53;;;5.74;100.00
55289;BME280;41154;45.394;5.734;2022-11-30T07:07:14;96997.13;;;5.55;100.00
55289;BME280;41154;45.394;5.734;2022-11-30T07:09:40;97004.56;;;5.47;100.00
55289;BME280;41154;45.394;5.734;2022-11-30T07:12:07;97001.75;;;5.42;100.00
55289;BME280;41154;45.394;5.734;2022-11-30T07:14:33;96998.56;;;5.58;100.00
55289;BME280;41154;45.394;5.734;2022-11-30T07:16:59;96990.78;;;5.82;100.00
55289;BME280;41154;45.394;5.734;2022-11-30T07:19:29;97004.44;;;5.85;100.00
55289;BME280;41154;45.394;5.734;2022-11-30T07:21:55;97006.97;;;5.55;100.00
55289;BME280;41154;45.394;5.734;2022-11-30T07:24:21;97010.31;;;5.44;100.00
55289;BME280;41154;45.394;5.734;2022-11-30T07:27:06;97004.75;;;5.52;100.00
55289;BME280;41154;45.394;5.734;2022-11-30T07:29:32;97007.91;;;5.67;100.00
55289;BME280;41154;45.394;5.734;2022-11-30T07:31:57;97011.00;;;5.83;100.00
55289;BME280;41154;45.394;5.734;2022-11-30T07:34:23;97014.72;;;5.82;100.00
55289;BME280;41154;45.394;5.734;2022-11-30T07:36:49;97015.59;;;5.75;100.00
55289;BME280;41154;45.394;5.734;2022-11-30T07:39:15;97012.22;;;5.87;100.00
55289;BME280;41154;45.394;5.734;2022-11-30T07:41:41;97015.66;;;5.69;100.00
55289;BME280;41154;45.394;5.734;2022-11-30T07:44:09;97014.09;;;5.61;100.00
55289;BME280;41154;45.394;5.734;2022-11-30T07:46:35;97014.47;;;5.65;100.00
55289;BME280;41154;45.394;5.734;2022-11-30T07:49:02;97013.09;;;5.81;100.00
55289;BME280;41154;45.394;5.734;2022-11-30T07:51:28;97009.69;;;5.92;100.00
55289;BME280;41154;45.394;5.734;2022-11-30T07:53:55;97017.59;;;5.80;100.00
55289;BME280;41154;45.394;5.734;2022-11-30T07:56:22;97013.81;;;5.69;100.00
55289;BME280;41154;45.394;5.734;2022-11-30T07:58:50;97011.91;;;5.76;100.00
55289;BME280;41154;45.394;5.734;2022-11-30T08:01:18;97012.78;;;5.89;100.00
55289;BME280;41154;45.394;5.734;2022-11-30T08:03:46;97020.13;;;6.00;100.00
55289;BME280;41154;45.394;5.734;2022-11-30T08:06:15;97014.84;;;5.68;100.00
55289;BME280;41154;45.394;5.734;2022-11-30T08:08:43;97007.72;;;5.62;100.00
55289;BME280;41154;45.394;5.734;2022-11-30T08:11:14;97020.63;;;5.84;100.00
55289;BME280;41154;45.394;5.734;2022-11-30T08:13:40;97024.31;;;5.64;100.00
55289;BME280;41154;45.394;5.734;2022-11-30T08:16:09;97019.06;;;6.01;100.00
55289;BME280;41154;45.394;5.734;2022-11-30T08:18:35;97024.50;;;5.88;100.00
55289;BME280;41154;45.394;5.734;2022-11-30T08:21:04;97022.59;;;5.70;100.00
55289;BME280;41154;45.394;5.734;2022-11-30T08:23:32;97024.50;;;5.88;100.00
55289;BME280;41154;45.394;5.734;2022-11-30T08:26:03;97028.09;;;5.75;100.00
55289;BME280;41154;45.394;5.734;2022-11-30T08:28:31;97026.06;;;5.96;100.00
55289;BME280;41154;45.394;5.734;2022-11-30T08:31:04;97030.09;;;5.80;100.00
55289;BME280;41154;45.394;5.734;2022-11-30T08:33:31;97023.31;;;5.84;100.00
55289;BME280;41154;45.394;5.734;2022-11-30T08:36:12;97030.34;;;6.22;100.00
55289;BME280;41154;45.394;5.734;2022-11-30T08:38:39;97028.53;;;5.97;100.00
55289;BME280;41154;45.394;5.734;2022-11-30T08:41:07;97033.44;;;6.37;100.00
55289;BME280;41154;45.394;5.734;2022-11-30T08:43:33;97031.59;;;6.56;100.00
55289;BME280;41154;45.394;5.734;2022-11-30T08:46:01;97026.09;;;6.51;100.00
55289;BME280;41154;45.394;5.734;2022-11-30T08:48:27;97025.00;;;6.59;100.00
55289;BME280;41154;45.394;5.734;2022-11-30T08:50:53;97033.84;;;6.71;100.00
55289;BME280;41154;45.394;5.734;2022-11-30T08:53:18;97036.41;;;6.29;100.00
55289;BME280;41154;45.394;5.734;2022-11-30T08:55:57;97026.06;;;6.39;100.00
55289;BME280;41154;45.394;5.734;2022-11-30T08:58:24;97033.06;;;6.34;100.00
55289;BME280;41154;45.394;5.734;2022-11-30T09:00:50;97038.53;;;6.76;100.00
55289;BME280;41154;45.394;5.734;2022-11-30T09:03:16;97050.50;;;6.85;100.00
55289;BME280;41154;45.394;5.734;2022-11-30T09:05:42;97044.16;;;6.30;100.00
55289;BME280;41154;45.394;5.734;2022-11-30T09:08:08;97038.13;;;6.23;100.00
55289;BME280;41154;45.394;5.734;2022-11-30T09:10:34;97036.16;;;6.12;100.00
55289;BME280;41154;45.394;5.734;2022-11-30T09:12:59;97044.69;;;6.58;100.00
55289;BME280;41154;45.394;5.734;2022-11-30T09:15:25;97037.84;;;6.80;100.00
55289;BME280;41154;45.394;5.734;2022-11-30T09:17:51;97034.59;;;6.78;100.00
55289;BME280;41154;45.394;5.734;2022-11-30T09:20:16;97043.94;;;6.51;100.00
55289;BME280;41154;45.394;5.734;2022-11-30T09:22:42;97037.88;;;6.43;100.00
55289;BME280;41154;45.394;5.734;2022-11-30T09:25:08;97039.22;;;6.16;100.00
55289;BME280;41154;45.394;5.734;2022-11-30T09:27:34;97040.47;;;6.13;100.00
55289;BME280;41154;45.394;5.734;2022-11-30T09:30:01;97046.38;;;6.15;100.00
55289;BME280;41154;45.394;5.734;2022-11-30T09:32:27;97041.56;;;6.05;100.00
55289;BME280;41154;45.394;5.734;2022-11-30T09:34:54;97038.63;;;6.51;100.00
55289;BME280;41154;45.394;5.734;2022-11-30T09:37:20;97038.91;;;6.61;100.00
55289;BME280;41154;45.394;5.734;2022-11-30T09:39:46;97040.97;;;6.40;100.00
55289;BME280;41154;45.394;5.734;2022-11-30T09:50:17;97043.94;;;6.51;100.00
55289;BME280;41154;45.394;5.734;2022-11-30T09:52:53;97045.63;;;6.82;100.00
55289;BME280;41154;45.394;5.734;2022-11-30T09:55:29;97042.94;;;6.52;100.00
55289;BME280;41154;45.394;5.734;2022-11-30T09:58:00;97045.38;;;6.35;100.00
55289;BME280;41154;45.394;5.734;2022-11-30T10:00:28;97047.81;;;6.36;100.00
55289;BME280;41154;45.394;5.734;2022-11-30T10:02:56;97047.72;;;6.43;100.00
55289;BME280;41154;45.394;5.734;2022-11-30T10:05:53;97047.97;;;6.90;100.00
55289;BME280;41154;45.394;5.734;2022-11-30T10:08:44;97044.03;;;6.62;100.00
55289;BME280;41154;45.394;5.734;2022-11-30T10:17:24;97033.78;;;6.78;100.00
55289;BME280;41154;45.394;5.734;2022-11-30T10:22:28;97038.03;;;6.67;100.00
55289;BME280;41154;45.394;5.734;2022-11-30T10:25:18;97033.00;;;6.40;100.00
55289;BME280;41154;45.394;5.734;2022-11-30T10:27:54;97034.16;;;6.63;100.00
55289;BME280;41154;45.394;5.734;2022-11-30T10:30:23;97029.16;;;6.85;100.00
55289;BME280;41154;45.394;5.734;2022-11-30T10:32:54;97032.09;;;6.46;100.00
55289;BME280;41154;45.394;5.734;2022-11-30T10:37:54;97032.34;;;6.26;100.00
55289;BME280;41154;45.394;5.734;2022-11-30T10:40:39;97035.41;;;6.60;100.00
55289;BME280;41154;45.394;5.734;2022-11-30T10:43:16;97033.59;;;6.61;100.00
55289;BME280;41154;45.394;5.734;2022-11-30T10:45:47;97028.94;;;6.87;100.00
55289;BME280;41154;45.394;5.734;2022-11-30T10:48:23;97017.88;;;6.34;100.00
55289;BME280;41154;45.394;5.734;2022-11-30T10:50:52;97014.56;;;6.57;100.00
55289;BME280;41154;45.394;5.734;2022-11-30T10:53:19;97020.59;;;6.83;100.00
55289;BME280;41154;45.394;5.734;2022-11-30T10:58:33;97017.59;;;6.61;100.00
55289;BME280;41154;45.394;5.734;2022-11-30T11:01:10;97022.50;;;6.45;100.00
55289;BME280;41154;45.394;5.734;2022-11-30T11:12:00;97028.81;;;6.81;100.00
55289;BME280;41154;45.394;5.734;2022-11-30T11:14:27;97019.03;;;7.06;100.00
55289;BME280;41154;45.394;5.734;2022-11-30T11:17:00;97015.44;;;7.00;100.00
55289;BME280;41154;45.394;5.734;2022-11-30T11:19:41;97023.84;;;6.85;100.00
55289;BME280;41154;45.394;5.734;2022-11-30T11:22:19;97018.50;;;6.85;100.00
55289;BME280;41154;45.394;5.734;2022-11-30T11:24:50;97023.66;;;6.68;100.00
55289;BME280;41154;45.394;5.734;2022-11-30T11:27:31;97012.41;;;6.66;100.00
55289;BME280;41154;45.394;5.734;2022-11-30T11:30:11;97014.72;;;6.93;100.00
55289;BME280;41154;45.394;5.734;2022-11-30T11:32:56;97017.72;;;6.84;100.00
55289;BME280;41154;45.394;5.734;2022-11-30T11:35:40;97012.69;;;6.76;100.00
55289;BME280;41154;45.394;5.734;2022-11-30T11:38:26;97018.25;;;6.75;100.00
55289;BME280;41154;45.394;5.734;2022-11-30T11:40:59;97015.22;;;7.01;100.00
55289;BME280;41154;45.394;5.734;2022-11-30T11:43:28;97011.03;;;6.94;100.00
55289;BME280;41154;45.394;5.734;2022-11-30T11:46:17;97012.78;;;7.00;100.00
55289;BME280;41154;45.394;5.734;2022-11-30T11:48:54;97004.69;;;7.07;100.00
55289;BME280;41154;45.394;5.734;2022-11-30T11:51:38;97009.84;;;6.90;100.00
55289;BME280;41154;45.394;5.734;2022-11-30T11:54:31;97016.78;;;6.60;100.00
55289;BME280;41154;45.394;5.734;2022-11-30T11:56:59;97018.31;;;6.68;100.00
55289;BME280;41154;45.394;5.734;2022-11-30T12:00:00;97016.25;;;6.70;100.00
55289;BME280;41154;45.394;5.734;2022-11-30T12:02:55;97010.75;;;6.83;100.00
55289;BME280;41154;45.394;5.734;2022-11-30T12:05:28;97012.72;;;6.88;100.00
55289;BME280;41154;45.394;5.734;2022-11-30T12:08:06;97011.63;;;6.77;100.00
55289;BME280;41154;45.394;5.734;2022-11-30T12:13:16;97000.56;;;7.34;100.00
55289;BME280;41154;45.394;5.734;2022-11-30T12:16:14;97003.03;;;7.36;100.00
55289;BME280;41154;45.394;5.734;2022-11-30T12:19:14;96994.91;;;7.00;100.00
55289;BME280;41154;45.394;5.734;2022-11-30T12:26:48;96990.47;;;7.25;100.00
55289;BME280;41154;45.394;5.734;2022-11-30T12:32:33;96993.06;;;7.79;100.00
55289;BME280;41154;45.394;5.734;2022-11-30T12:38:04;96995.69;;;7.43;100.00
55289;BME280;41154;45.394;5.734;2022-11-30T12:41:00;97000.94;;;7.38;100.00
55289;BME280;41154;45.394;5.734;2022-11-30T12:46:30;96988.03;;;6.81;100.00
55289;BME280;41154;45.394;5.734;2022-11-30T12:54:47;96990.06;;;6.67;100.00
55289;BME280;41154;45.394;5.734;2022-11-30T12:57:33;96988.50;;;6.90;100.00
55289;BME280;41154;45.394;5.734;2022-11-30T13:00:12;96994.53;;;7.27;100.00
55289;BME280;41154;45.394;5.734;2022-11-30T13:02:57;97009.84;;;6.90;100.00
55289;BME280;41154;45.394;5.734;2022-11-30T13:05:36;97000.16;;;6.77;100.00
55289;BME280;41154;45.394;5.734;2022-11-30T13:10:43;97006.63;;;6.69;100.00
55289;BME280;41154;45.394;5.734;2022-11-30T13:13:24;96992.81;;;6.91;100.00
55289;BME280;41154;45.394;5.734;2022-11-30T13:15:51;96998.09;;;7.09;100.00
55289;BME280;41154;45.394;5.734;2022-11-30T13:18:19;96994.91;;;7.00;100.00
55289;BME280;41154;45.394;5.734;2022-11-30T13:23:31;96997.81;;;6.99;100.00
55289;BME280;41154;45.394;5.734;2022-11-30T13:31:40;96998.66;;;7.11;100.00
55289;BME280;41154;45.394;5.734;2022-11-30T13:34:41;97004.38;;;7.27;100.00
55289;BME280;41154;45.394;5.734;2022-11-30T13:37:10;97002.13;;;7.12;100.00
55289;BME280;41154;45.394;5.734;2022-11-30T13:39:53;97003.31;;;6.86;100.00
55289;BME280;41154;45.394;5.734;2022-11-30T13:42:41;97005.84;;;6.80;100.00
55289;BME280;41154;45.394;5.734;2022-11-30T13:47:52;97002.41;;;6.61;100.00
55289;BME280;41154;45.394;5.734;2022-11-30T13:58:08;96990.13;;;6.60;100.00
55289;BME280;41154;45.394;5.734;2022-11-30T14:05:46;96990.31;;;6.47;100.00
55289;BME280;41154;45.394;5.734;2022-11-30T14:10:49;96994.78;;;6.46;100.00
55289;BME280;41154;45.394;5.734;2022-11-30T14:25:58;96994.94;;;6.70;100.00
55289;BME280;41154;45.394;5.734;2022-11-30T14:28:39;96986.88;;;6.58;100.00
55289;BME280;41154;45.394;5.734;2022-11-30T14:31:09;96993.00;;;6.59;100.00
55289;BME280;41154;45.394;5.734;2022-11-30T14:33:53;96991.22;;;6.53;100.00
55289;BME280;41154;45.394;5.734;2022-11-30T14:36:21;96985.09;;;6.52;100.00
55289;BME280;41154;45.394;5.734;2022-11-30T14:38:51;96987.25;;;6.43;100.00
55289;BME280;41154;45.394;5.734;2022-11-30T14:41:29;96992.28;;;6.52;100.00
55289;BME280;41154;45.394;5.734;2022-11-30T14:44:11;96993.09;;;6.52;100.00
55289;BME280;41154;45.394;5.734;2022-11-30T14:46:37;96993.16;;;6.64;100.00
55289;BME280;41154;45.394;5.734;2022-11-30T14:51:32;96996.31;;;6.73;100.00
55289;BME280;41154;45.394;5.734;2022-11-30T14:54:06;96991.31;;;6.46;100.00
55289;BME280;41154;45.394;5.734;2022-11-30T14:56:51;96994.88;;;6.40;100.00
55289;BME280;41154;45.394;5.734;2022-11-30T15:02:34;96992.09;;;6.35;100.00
55289;BME280;41154;45.394;5.734;2022-11-30T15:05:04;96983.94;;;6.29;100.00
55289;BME280;41154;45.394;5.734;2022-11-30T15:07:32;96989.91;;;6.43;100.00
55289;BME280;41154;45.394;5.734;2022-11-30T15:10:08;96986.41;;;6.31;100.00
55289;BME280;41154;45.394;5.734;2022-11-30T15:12:37;96986.97;;;6.52;100.00